Time;durP1;ratioP1;P1;durP2;ratioP2;P2;SDS_P1;SDS_P2;PMS_P1;PMS_P2;Temp;Humidity;BMP_temperature;BMP_pressure;BME280_temperature;BME280_humidity;BME280_pressure;Samples;Min_cycle;Max_cycle;Signal;HPM_P1;HPM_P2
2021/09/10 00:01:33;;;;;;;35.35;18.00;;;;;;;9.39;87.53;99897.16;1715029;83;21403;-70
2021/09/10 00:04:05;;;;;;;34.92;17.90;;;;;;;9.37;87.52;99893.91;1707715;83;20983;-69
2021/09/10 00:06:39;;;;;;;31.15;17.87;;;;;;;9.33;87.60;99896.42;1695223;83;20979;-69
2021/09/10 00:09:13;;;;;;;32.75;18.27;;;;;;;9.31;87.69;99901.95;1701466;83;21210;-71
2021/09/10 00:11:45;;;;;;;38.35;17.25;;;;;;;9.26;87.86;99903.66;1658605;85;20991;-72
2021/09/10 00:14:14;;;;;;;29.85;17.32;;;;;;;9.24;88.00;99905.88;1644776;85;21040;-73
2021/09/10 00:16:46;;;;;;;34.92;16.62;;;;;;;9.21;88.20;99906.50;1665682;85;20869;-71
2021/09/10 00:19:16;;;;;;;34.88;17.00;;;;;;;9.20;88.42;99906.80;1670259;85;21467;-71
2021/09/10 00:21:43;;;;;;;29.10;16.42;;;;;;;9.18;88.55;99910.39;1671083;85;21163;-72
2021/09/10 00:24:13;;;;;;;30.40;16.73;;;;;;;9.15;88.43;99909.06;1649465;85;20987;-72
2021/09/10 00:26:42;;;;;;;33.08;18.40;;;;;;;9.11;88.42;99905.28;1697540;83;20873;-68
2021/09/10 00:29:11;;;;;;;31.40;16.57;;;;;;;9.09;88.55;99905.33;1703628;82;21026;-68
2021/09/10 00:31:42;;;;;;;26.82;15.63;;;;;;;9.05;88.53;99903.73;1704314;83;21431;-68
2021/09/10 00:34:14;;;;;;;29.60;17.35;;;;;;;9.02;88.47;99905.70;1678393;84;20964;-68
2021/09/10 00:36:47;;;;;;;32.63;16.35;;;;;;;9.00;88.53;99903.81;1705819;83;20995;-69
2021/09/10 00:39:21;;;;;;;31.03;16.37;;;;;;;8.97;88.63;99901.66;1691670;83;20993;-69
2021/09/10 00:41:44;;;;;;;33.80;16.67;;;;;;;8.95;88.60;99903.88;1701910;83;21478;-71
2021/09/10 00:44:16;;;;;;;30.82;15.53;;;;;;;8.93;88.51;99903.37;1682050;83;20992;-70
2021/09/10 00:46:43;;;;;;;30.20;16.17;;;;;;;8.89;88.53;99905.88;1691595;83;21023;-70
2021/09/10 00:49:12;;;;;;;28.35;15.70;;;;;;;8.87;88.53;99901.25;1683524;83;21019;-71
2021/09/10 00:51:45;;;;;;;26.50;15.50;;;;;;;8.84;88.57;99908.69;1706072;83;21558;-71
2021/09/10 00:54:14;;;;;;;28.80;15.93;;;;;;;8.82;88.60;99905.98;1689193;83;21021;-69
2021/09/10 00:56:46;;;;;;;27.85;16.05;;;;;;;8.81;88.70;99907.09;1688801;83;21030;-69
2021/09/10 00:59:19;;;;;;;26.45;16.07;;;;;;;8.79;88.76;99901.91;1650851;84;21098;-69
2021/09/10 01:01:49;;;;;;;30.32;15.83;;;;;;;8.77;88.75;99897.84;1684374;83;21077;-70
2021/09/10 01:04:25;;;;;;;30.15;15.50;;;;;;;8.75;88.79;99902.25;1695137;83;20899;-70
2021/09/10 01:06:57;;;;;;;28.70;16.80;;;;;;;8.73;88.76;99896.25;1692908;83;20970;-70
2021/09/10 01:09:25;;;;;;;36.05;16.67;;;;;;;8.70;88.79;99904.23;1695800;83;20879;-70
2021/09/10 01:11:53;;;;;;;31.75;16.90;;;;;;;8.68;88.91;99905.90;1676155;84;20991;-69
2021/09/10 01:14:20;;;;;;;33.65;16.82;;;;;;;8.66;88.88;99901.30;1661920;83;20932;-70
2021/09/10 01:16:53;;;;;;;32.25;17.00;;;;;;;8.63;88.99;99903.81;1692842;83;21448;-69
2021/09/10 01:19:31;;;;;;;31.87;16.62;;;;;;;8.59;89.21;99902.22;1711099;83;20893;-70
2021/09/10 01:22:04;;;;;;;29.65;16.77;;;;;;;8.58;89.31;99898.67;1690957;83;20852;-70
2021/09/10 01:24:40;;;;;;;28.65;15.78;;;;;;;8.54;89.29;99892.70;1648836;83;20908;-70
2021/09/10 01:27:10;;;;;;;30.72;15.95;;;;;;;8.52;89.24;99890.81;1704444;83;20952;-70
2021/09/10 01:29:43;;;;;;;33.95;15.28;;;;;;;8.48;89.25;99895.25;1688496;83;21411;-69
2021/09/10 01:32:16;;;;;;;32.45;16.75;;;;;;;8.44;89.43;99893.66;1704559;83;20983;-69
2021/09/10 01:34:48;;;;;;;30.92;16.77;;;;;;;8.43;89.57;99892.02;1699453;83;21050;-69
2021/09/10 01:37:17;;;;;;;29.80;15.30;;;;;;;8.41;89.65;99898.34;1698654;83;21199;-70
2021/09/10 01:39:49;;;;;;;25.88;14.33;;;;;;;8.39;89.66;99896.45;1708157;83;20940;-70
2021/09/10 01:42:24;;;;;;;33.02;15.58;;;;;;;8.36;89.70;99898.40;1663113;84;20924;-70
2021/09/10 01:44:53;;;;;;;39.63;15.93;;;;;;;8.32;89.71;99894.59;1696698;83;21439;-71
2021/09/10 01:47:22;;;;;;;33.25;16.32;;;;;;;8.29;89.90;99890.52;1699022;83;21118;-71
2021/09/10 01:49:52;;;;;;;28.73;15.83;;;;;;;8.26;89.89;99888.92;1673517;85;22765;-70
2021/09/10 01:52:24;;;;;;;32.40;15.75;;;;;;;8.23;89.86;99894.97;1661969;85;21546;-71
2021/09/10 01:54:58;;;;;;;32.45;15.15;;;;;;;8.20;89.92;99896.92;1683915;83;21535;-71
2021/09/10 01:57:35;;;;;;;31.93;15.35;;;;;;;8.16;89.97;99893.14;1709634;83;20950;-71
2021/09/10 01:59:59;;;;;;;28.80;15.75;;;;;;;8.13;89.98;99891.80;1689618;83;20924;-71
2021/09/10 02:02:39;;;;;;;33.00;15.20;;;;;;;8.12;90.04;99897.01;1707942;83;20895;-71
2021/09/10 02:05:10;;;;;;;29.82;15.13;;;;;;;8.10;89.98;99891.56;1704600;83;21442;-71
2021/09/10 02:07:42;;;;;;;31.68;16.05;;;;;;;8.05;90.13;99895.20;1683772;83;21471;-71
2021/09/10 02:10:11;;;;;;;25.82;13.98;;;;;;;8.02;90.15;99894.42;1695973;83;20990;-70
2021/09/10 02:12:45;;;;;;;30.32;15.70;;;;;;;8.00;90.28;99897.18;1682998;83;21054;-70
2021/09/10 02:15:13;;;;;;;32.55;15.70;;;;;;;7.98;90.31;99892.55;1691837;84;21535;-70
2021/09/10 02:17:44;;;;;;;27.58;14.60;;;;;;;7.93;90.28;99892.87;1694208;83;20883;-72
2021/09/10 02:20:21;;;;;;;31.55;15.28;;;;;;;7.92;90.39;99894.52;1692506;83;20936;-73
2021/09/10 02:22:52;;;;;;;23.45;14.80;;;;;;;7.89;90.53;99891.81;1675968;83;21016;-72
2021/09/10 02:25:23;;;;;;;34.58;16.30;;;;;;;7.87;90.49;99887.19;1692630;83;21491;-71
2021/09/10 02:27:52;;;;;;;30.17;15.75;;;;;;;7.86;90.58;99895.13;1700891;83;21554;-71
2021/09/10 02:30:25;;;;;;;30.45;14.98;;;;;;;7.83;90.46;99884.77;1686629;82;21035;-71
2021/09/10 02:32:58;;;;;;;33.18;15.88;;;;;;;7.82;90.49;99889.97;1680315;83;21008;-71
2021/09/10 02:35:28;;;;;;;30.30;14.70;;;;;;;7.80;90.40;99890.00;1686240;84;20957;-72
2021/09/10 02:38:01;;;;;;;27.80;15.43;;;;;;;7.78;90.39;99891.66;1678037;84;20880;-71
2021/09/10 02:40:37;;;;;;;31.62;15.63;;;;;;;7.76;90.30;99890.31;1656690;85;21422;-71
2021/09/10 02:43:07;;;;;;;25.75;14.00;;;;;;;7.74;90.29;99888.42;1671494;84;21221;-72
2021/09/10 02:45:32;;;;;;;27.58;14.95;;;;;;;7.71;90.30;99884.90;1679532;84;21512;-72
2021/09/10 02:48:06;;;;;;;32.83;15.18;;;;;;;7.71;90.31;99887.08;1669199;84;21424;-72
2021/09/10 02:50:37;;;;;;;26.77;15.10;;;;;;;7.70;90.30;99888.19;1676987;85;21007;-72
2021/09/10 02:53:06;;;;;;;33.40;15.83;;;;;;;7.68;90.29;99890.94;1663023;84;21636;-72
2021/09/10 02:55:34;;;;;;;28.52;16.12;;;;;;;7.66;90.35;99889.05;1648469;85;21076;-71
2021/09/10 02:58:09;;;;;;;27.48;15.58;;;;;;;7.63;90.36;99887.16;1585806;88;20981;-71
2021/09/10 03:00:44;;;;;;;28.07;16.20;;;;;;;7.61;90.37;99888.55;1604215;88;21581;-72
2021/09/10 03:03:13;;;;;;;30.62;15.78;;;;;;;7.59;90.35;99886.65;1611752;88;21035;-72
2021/09/10 03:05:47;;;;;;;25.95;14.78;;;;;;;7.55;90.37;99882.31;1582642;88;21171;-71
2021/09/10 03:08:17;;;;;;;26.77;15.43;;;;;;;7.54;90.49;99886.14;1579468;88;21176;-73
2021/09/10 03:10:47;;;;;;;31.05;14.80;;;;;;;7.52;90.59;99886.16;1610644;86;20977;-72
2021/09/10 03:13:13;;;;;;;34.33;13.80;;;;;;;7.50;90.55;99888.41;1657736;85;20998;-72
2021/09/10 03:15:46;;;;;;;27.80;14.75;;;;;;;7.47;90.67;99887.06;1660693;85;20904;-72
2021/09/10 03:18:16;;;;;;;31.23;15.03;;;;;;;7.45;90.77;99884.34;1661471;85;21662;-71
2021/09/10 03:20:49;;;;;;;26.87;14.38;;;;;;;7.44;90.74;99881.35;1656720;85;20897;-72
2021/09/10 03:23:21;;;;;;;29.42;14.73;;;;;;;7.43;90.73;99879.72;1663718;84;20936;-72
2021/09/10 03:25:54;;;;;;;30.20;14.93;;;;;;;7.41;90.76;99878.64;1677834;85;20960;-72
2021/09/10 03:28:23;;;;;;;29.35;14.28;;;;;;;7.40;90.76;99885.76;1668154;84;21142;-72
2021/09/10 03:30:57;;;;;;;27.37;14.98;;;;;;;7.39;90.80;99886.31;1686020;83;21232;-71
2021/09/10 03:33:24;;;;;;;27.02;14.20;;;;;;;7.37;90.79;99880.31;1681642;84;20975;-71
2021/09/10 03:35:55;;;;;;;32.10;14.53;;;;;;;7.37;90.81;99884.96;1653523;84;21538;-72
2021/09/10 03:38:25;;;;;;;32.00;14.25;;;;;;;7.35;90.81;99885.80;1665712;84;21102;-72
2021/09/10 03:40:55;;;;;;;33.30;15.08;;;;;;;7.34;90.87;99883.62;1681173;84;21023;-70
2021/09/10 03:43:35;;;;;;;26.37;14.33;;;;;;;7.33;90.95;99881.98;1663802;85;21243;-73
2021/09/10 03:46:05;;;;;;;28.42;14.58;;;;;;;7.34;91.01;99888.27;1658478;84;21479;-71
2021/09/10 03:48:37;;;;;;;35.40;15.38;;;;;;;7.34;91.13;99887.72;1686221;85;21487;-70
2021/09/10 03:51:04;;;;;;;27.10;14.98;;;;;;;7.36;91.28;99886.06;1679315;84;21588;-70
2021/09/10 03:53:39;;;;;;;24.77;13.58;;;;;;;7.37;91.36;99893.16;1663230;84;20955;-70
2021/09/10 03:56:10;;;;;;;28.70;15.40;;;;;;;7.38;91.39;99897.52;1661222;85;21219;-71
2021/09/10 03:58:41;;;;;;;25.30;14.50;;;;;;;7.39;91.52;99893.13;1667611;83;20972;-70
2021/09/10 04:01:10;;;;;;;27.37;14.07;;;;;;;7.43;91.77;99894.74;1688314;85;21035;-69
2021/09/10 04:03:40;;;;;;;32.65;13.98;;;;;;;7.47;91.89;99895.80;1677436;84;21010;-69
2021/09/10 04:06:10;;;;;;;29.42;14.18;;;;;;;7.50;91.96;99895.23;1650294;84;21072;-70
2021/09/10 04:08:41;;;;;;;35.63;15.40;;;;;;;7.54;92.01;99901.72;1675018;84;21742;-73
2021/09/10 04:11:11;;;;;;;26.90;14.28;;;;;;;7.58;92.23;99898.68;1675809;85;21542;-71
2021/09/10 04:13:42;;;;;;;25.08;14.45;;;;;;;7.62;92.56;99892.91;1655263;85;21613;-71
2021/09/10 04:16:13;;;;;;;31.68;13.72;;;;;;;7.69;92.82;99891.20;1654825;84;20945;-71
2021/09/10 04:18:40;;;;;;;37.78;15.60;;;;;;;7.76;92.97;99890.31;1677030;84;21401;-70
2021/09/10 04:21:11;;;;;;;32.93;14.07;;;;;;;7.83;93.15;99888.88;1680663;84;21138;-70
2021/09/10 04:23:39;;;;;;;34.63;14.03;;;;;;;7.91;93.52;99890.97;1672002;84;20896;-72
2021/09/10 04:26:07;;;;;;;38.80;14.18;;;;;;;8.01;93.73;99895.52;1685292;84;21071;-67
2021/09/10 04:28:37;;;;;;;34.48;15.48;;;;;;;8.11;93.84;99895.93;1677285;85;20923;-68
2021/09/10 04:31:06;;;;;;;37.88;16.12;;;;;;;8.20;94.04;99899.66;1676008;85;21034;-68
2021/09/10 04:33:36;;;;;;;34.35;16.73;;;;;;;8.33;94.56;99900.35;1675423;84;21343;-68
2021/09/10 04:36:07;;;;;;;33.90;15.50;;;;;;;8.44;94.64;99902.41;1663987;85;21002;-68
2021/09/10 04:38:33;;;;;;;27.22;15.83;;;;;;;8.55;94.79;99895.16;1671422;85;20896;-69
2021/09/10 04:41:06;;;;;;;32.15;16.57;;;;;;;8.69;95.05;99893.03;1654377;84;21541;-67
2021/09/10 04:43:35;;;;;;;33.45;16.35;;;;;;;8.82;95.32;99894.48;1669690;84;20980;-67
2021/09/10 04:46:06;;;;;;;31.85;15.45;;;;;;;8.97;95.79;99896.19;1656481;85;21633;-67
2021/09/10 04:48:42;;;;;;;29.42;16.97;;;;;;;9.13;96.11;99895.41;1679256;84;20988;-68
2021/09/10 04:51:10;;;;;;;41.80;17.07;;;;;;;9.28;96.34;99893.77;1645082;86;21068;-68
2021/09/10 04:53:40;;;;;;;30.52;16.77;;;;;;;9.44;96.70;99895.70;1645944;86;20948;-68
2021/09/10 04:56:16;;;;;;;32.73;17.80;;;;;;;9.59;96.94;99891.34;1651781;85;20995;-68
2021/09/10 04:58:47;;;;;;;32.03;17.95;;;;;;;9.77;97.26;99900.62;1653109;85;21143;-68
2021/09/10 05:01:22;;;;;;;33.95;17.60;;;;;;;9.94;97.73;99896.15;1657235;84;21443;-68
2021/09/10 05:04:01;;;;;;;40.15;19.07;;;;;;;10.13;97.87;99895.25;1678151;85;21039;-65
2021/09/10 05:06:34;;;;;;;36.93;18.98;;;;;;;10.33;98.04;99894.89;1678122;84;20916;-65
2021/09/10 05:09:07;;;;;;;38.88;18.67;;;;;;;10.51;98.34;99893.12;1657327;85;21050;-65
2021/09/10 05:11:36;;;;;;;43.38;17.12;;;;;;;10.72;98.86;99890.75;1681033;84;21145;-66
2021/09/10 05:14:14;;;;;;;36.95;16.97;;;;;;;10.93;99.00;99889.18;1650284;86;20961;-67
2021/09/10 05:16:50;;;;;;;40.28;17.52;;;;;;;11.13;98.95;99889.24;1661417;84;20919;-66
2021/09/10 05:19:26;;;;;;;40.85;18.30;;;;;;;11.34;98.67;99891.76;1679777;84;20925;-65
2021/09/10 05:21:56;;;;;;;38.70;18.48;;;;;;;11.56;98.23;99885.41;1682672;84;20992;-66
2021/09/10 05:24:27;;;;;;;45.48;18.05;;;;;;;11.77;98.34;99886.55;1672172;84;21769;-63
2021/09/10 05:26:56;;;;;;;31.60;15.68;;;;;;;11.98;98.11;99890.94;1658228;85;20948;-64
2021/09/10 05:29:29;;;;;;;38.48;17.25;;;;;;;12.18;97.84;99887.60;1660183;84;21550;-64
2021/09/10 05:32:06;;;;;;;30.57;16.97;;;;;;;12.41;96.99;99886.14;1662974;85;20992;-73
2021/09/10 05:34:38;;;;;;;36.60;16.45;;;;;;;12.63;96.13;99887.98;1648323;86;21003;-71
2021/09/10 05:37:05;;;;;;;35.28;17.12;;;;;;;12.83;95.41;99883.22;1647156;85;21160;-70
2021/09/10 05:39:33;;;;;;;39.15;18.27;;;;;;;13.02;94.68;99879.59;1629345;86;21002;-74
2021/09/10 05:42:04;;;;;;;45.52;20.55;;;;;;;13.21;93.45;99882.05;1672938;84;20923;-68
2021/09/10 05:44:34;;;;;;;60.85;25.65;;;;;;;13.39;93.07;99884.20;1669640;85;21079;-68
2021/09/10 05:47:06;;;;;;;71.05;27.17;;;;;;;13.58;92.44;99886.61;1660856;85;21020;-69
2021/09/10 05:49:40;;;;;;;71.37;29.50;;;;;;;13.76;92.06;99887.63;1639741;85;21111;-65
2021/09/10 05:52:13;;;;;;;63.02;29.30;;;;;;;13.96;92.04;99888.84;1639594;86;20911;-63
2021/09/10 05:54:43;;;;;;;58.73;26.62;;;;;;;14.13;91.22;99886.02;1658735;85;22984;-66
2021/09/10 05:57:14;;;;;;;47.23;22.87;;;;;;;14.30;89.92;99890.66;1654518;85;20921;-65
2021/09/10 05:59:43;;;;;;;40.45;18.17;;;;;;;14.45;88.38;99887.34;1655156;85;20945;-64
2021/09/10 06:02:16;;;;;;;32.13;15.20;;;;;;;14.61;86.76;99886.20;1651145;85;21156;-67
2021/09/10 06:04:47;;;;;;;25.45;12.37;;;;;;;14.76;83.51;99889.77;1651230;85;21000;-68
2021/09/10 06:07:14;;;;;;;23.50;12.33;;;;;;;14.90;82.62;99889.52;1647113;86;21507;-65
2021/09/10 06:09:45;;;;;;;;;;;;;;;15.02;81.72;99893.70;1652471;85;21492;-65
2021/09/10 06:12:12;;;;;;;28.23;12.23;;;;;;;15.18;81.80;99896.09;1654461;85;20210;-66
2021/09/10 06:14:39;;;;;;;20.80;11.57;;;;;;;15.31;81.87;99895.59;1649184;86;21067;-65
2021/09/10 06:17:07;;;;;;;23.67;11.57;;;;;;;15.44;81.40;99886.20;1650135;86;20897;-68
2021/09/10 06:19:35;;;;;;;22.65;10.63;;;;;;;15.61;81.30;99896.30;1649619;85;21125;-71
2021/09/10 06:22:04;;;;;;;26.50;10.78;;;;;;;15.77;80.24;99894.50;1656711;85;21079;-67
2021/09/10 06:24:30;;;;;;;29.42;10.25;;;;;;;15.92;77.21;99897.77;1654960;85;20861;-70
2021/09/10 06:26:58;;;;;;;23.45;9.83;;;;;;;16.05;75.29;99893.30;1662645;84;20976;-76
2021/09/10 06:29:25;;;;;;;19.30;9.90;;;;;;;16.20;73.20;99900.09;1680659;85;20939;-71
2021/09/10 06:31:52;;;;;;;20.82;9.55;;;;;;;16.35;71.77;99895.84;1658613;85;20955;-71
2021/09/10 06:34:25;;;;;;;20.65;10.55;;;;;;;16.50;71.25;99904.28;1646168;85;20880;-71
2021/09/10 06:36:48;;;;;;;19.27;9.73;;;;;;;16.65;70.70;99903.38;1657782;85;20936;-77
2021/09/10 06:39:16;;;;;;;18.57;9.65;;;;;;;16.77;70.59;99903.34;1669276;85;21120;-69
2021/09/10 06:41:43;;;;;;;20.68;10.48;;;;;;;16.91;69.46;99904.37;1667027;85;20975;-68
2021/09/10 06:44:10;;;;;;;23.40;9.68;;;;;;;17.03;68.81;99905.16;1668282;85;21436;-68
2021/09/10 06:46:36;;;;;;;21.93;10.00;;;;;;;17.20;68.96;99905.46;1655098;85;21455;-69
2021/09/10 06:49:03;;;;;;;26.52;9.70;;;;;;;17.36;68.18;99904.92;1674202;85;21522;-68
2021/09/10 06:51:30;;;;;;;26.85;11.15;;;;;;;17.54;66.82;99901.84;1658962;85;21212;-69
2021/09/10 06:53:57;;;;;;;25.55;12.90;;;;;;;17.69;65.65;99897.77;1680062;84;20959;-69
2021/09/10 06:56:25;;;;;;;40.05;17.27;;;;;;;17.87;65.34;99907.97;1674236;85;20960;-68
2021/09/10 06:58:51;;;;;;;32.90;16.10;;;;;;;18.01;64.16;99902.77;1677987;84;21075;-68
2021/09/10 07:01:18;;;;;;;41.00;16.02;;;;;;;18.13;64.41;99903.27;1678324;84;20948;-67
2021/09/10 07:03:46;;;;;;;36.98;15.80;;;;;;;18.28;63.38;99904.44;1674157;85;21114;-67
2021/09/10 07:06:12;;;;;;;34.35;14.10;;;;;;;18.41;61.65;99908.16;1675251;85;21562;-71
2021/09/10 07:08:39;;;;;;;26.00;12.00;;;;;;;18.55;61.23;99909.66;1680226;83;21111;-68
2021/09/10 07:11:08;;;;;;;30.30;11.63;;;;;;;18.67;60.09;99911.78;1686465;84;20994;-70
2021/09/10 07:13:36;;;;;;;21.75;10.82;;;;;;;18.83;60.42;99916.51;1683926;84;20864;-69
2021/09/10 07:16:03;;;;;;;20.57;10.35;;;;;;;18.99;60.10;99915.89;1677873;84;21060;-67
2021/09/10 07:18:30;;;;;;;20.25;10.45;;;;;;;19.17;57.40;99916.26;1668245;84;20916;-66
2021/09/10 07:20:57;;;;;;;25.43;10.03;;;;;;;19.35;58.03;99920.23;1675525;85;21065;-66
2021/09/10 07:23:23;;;;;;;30.62;11.28;;;;;;;19.68;57.73;99919.14;1671616;85;21015;-66
2021/09/10 07:25:50;;;;;;;28.00;10.78;;;;;;;20.23;56.72;99913.38;1683035;84;20941;-66
2021/09/10 07:28:16;;;;;;;25.00;9.88;;;;;;;20.91;56.33;99915.28;1675450;84;21062;-66
2021/09/10 07:30:43;;;;;;;18.17;9.50;;;;;;;21.53;51.01;99917.94;1684391;84;20923;-68
2021/09/10 07:33:09;;;;;;;20.65;7.42;;;;;;;21.99;50.81;99921.23;1686839;84;21010;-68
2021/09/10 07:35:36;;;;;;;16.37;7.40;;;;;;;22.40;47.27;99916.47;1686161;84;21059;-67
2021/09/10 07:38:03;;;;;;;17.57;8.73;;;;;;;22.82;45.90;99908.21;1685746;84;21018;-69
2021/09/10 07:40:31;;;;;;;15.63;7.50;;;;;;;23.22;45.88;99912.03;1686048;84;21139;-70
2021/09/10 07:43:00;;;;;;;15.75;7.30;;;;;;;23.64;44.84;99918.47;1686663;84;21447;-68
2021/09/10 07:45:26;;;;;;;14.15;7.12;;;;;;;24.07;43.34;99913.75;1674272;85;21011;-68
2021/09/10 07:47:53;;;;;;;14.85;6.90;;;;;;;24.34;40.24;99915.00;1685563;84;21014;-68
2021/09/10 07:50:20;;;;;;;17.20;7.22;;;;;;;24.47;40.20;99916.00;1683331;84;20982;-68
2021/09/10 07:52:46;;;;;;;14.50;5.97;;;;;;;24.55;40.19;99912.00;1678111;84;22947;-68
2021/09/10 07:55:13;;;;;;;13.22;6.78;;;;;;;24.83;40.03;99906.97;1679201;84;21601;-68
2021/09/10 07:57:40;;;;;;;13.95;5.17;;;;;;;25.17;38.76;99907.30;1676785;84;21035;-68
2021/09/10 08:00:08;;;;;;;11.20;6.08;;;;;;;25.32;37.14;99908.27;1680377;84;21773;-68
2021/09/10 08:02:35;;;;;;;11.28;5.95;;;;;;;25.38;35.82;99907.24;1682151;84;21518;-69
2021/09/10 08:05:03;;;;;;;9.93;5.67;;;;;;;25.44;35.54;99909.00;1675271;84;21055;-72
2021/09/10 08:07:30;;;;;;;11.12;6.25;;;;;;;25.43;34.53;99902.58;1668395;85;20904;-71
2021/09/10 08:09:58;;;;;;;12.28;6.33;;;;;;;25.43;34.72;99901.77;1675471;85;21475;-71
2021/09/10 08:12:25;;;;;;;16.15;6.92;;;;;;;25.59;34.56;99905.72;1682578;84;21205;-72
2021/09/10 08:14:52;;;;;;;17.10;7.08;;;;;;;25.87;35.69;99903.41;1683514;84;21141;-72
2021/09/10 08:17:19;;;;;;;15.43;7.12;;;;;;;26.25;33.75;99902.93;1686278;84;21132;-69
2021/09/10 08:19:49;;;;;;;19.62;7.28;;;;;;;26.44;34.29;99897.39;1669335;85;20912;-69
2021/09/10 08:22:17;;;;;;;9.53;6.55;;;;;;;26.62;33.53;99901.44;1669538;84;20952;-70
2021/09/10 08:24:47;;;;;;;14.47;6.62;;;;;;;26.76;34.22;99896.28;1669261;85;20960;-69
2021/09/10 08:27:13;;;;;;;12.65;6.40;;;;;;;27.01;33.27;99895.45;1681342;84;21631;-69
2021/09/10 08:29:40;;;;;;;15.88;6.53;;;;;;;27.14;33.39;99895.11;1680242;84;21455;-68
2021/09/10 08:32:07;;;;;;;10.90;6.33;;;;;;;27.30;33.03;99894.50;1694328;84;21042;-72
2021/09/10 08:34:33;;;;;;;15.20;5.85;;;;;;;27.38;31.27;99887.56;1680470;84;21007;-67
2021/09/10 08:37:00;;;;;;;15.35;5.55;;;;;;;27.45;30.68;99891.70;1674214;85;20976;-65
2021/09/10 08:39:27;;;;;;;7.10;4.42;;;;;;;27.49;29.63;99883.20;1663774;85;21016;-66
2021/09/10 08:41:53;;;;;;;12.40;4.53;;;;;;;27.48;29.72;99880.20;1685738;84;21682;-66
2021/09/10 08:44:21;;;;;;;11.73;5.33;;;;;;;27.47;29.49;99882.83;1670107;85;20909;-66
2021/09/10 08:46:47;;;;;;;8.38;4.00;;;;;;;27.44;30.09;99880.23;1658587;85;21498;-67
2021/09/10 08:49:14;;;;;;;11.80;4.60;;;;;;;27.56;29.15;99878.27;1676705;84;20928;-66
2021/09/10 08:51:43;;;;;;;8.25;4.25;;;;;;;27.74;30.03;99875.83;1676937;84;20952;-65
2021/09/10 08:54:09;;;;;;;8.10;4.62;;;;;;;27.88;28.04;99870.78;1676617;84;21132;-66
2021/09/10 08:56:37;;;;;;;9.15;4.15;;;;;;;28.05;27.62;99870.33;1682436;84;20951;-66
2021/09/10 08:59:12;;;;;;;10.08;4.58;;;;;;;28.15;27.91;99872.80;1677620;84;21496;-66
2021/09/10 09:01:50;;;;;;;13.28;5.25;;;;;;;28.21;27.08;99871.09;1668494;85;21546;-67
2021/09/10 09:04:17;;;;;;;8.85;5.33;;;;;;;28.28;26.98;99865.38;1673536;85;22317;-69
2021/09/10 09:06:52;;;;;;;6.55;4.35;;;;;;;28.24;28.16;99863.22;1674990;85;21742;-70
2021/09/10 09:09:44;;;;;;;7.83;3.65;;;;;;;28.43;28.26;99857.43;1656900;85;20967;-68
2021/09/10 09:12:24;;;;;;;10.30;4.70;;;;;;;28.39;27.15;99858.11;1680188;84;21015;-68
2021/09/10 09:14:57;;;;;;;8.23;4.35;;;;;;;28.21;27.34;99855.58;1680211;84;21098;-70
2021/09/10 09:17:33;;;;;;;8.88;4.58;;;;;;;28.13;28.37;99849.24;1665061;85;21047;-68
2021/09/10 09:20:24;;;;;;;8.35;4.45;;;;;;;28.26;28.64;99851.69;1678016;84;21092;-69
2021/09/10 09:23:07;;;;;;;8.38;4.30;;;;;;;28.40;26.57;99849.82;1675227;84;21007;-70
2021/09/10 09:25:44;;;;;;;8.30;4.50;;;;;;;28.53;29.08;99849.39;1683161;84;21533;-64
2021/09/10 09:28:24;;;;;;;9.08;3.98;;;;;;;28.75;26.25;99844.95;1683171;84;21609;-64
2021/09/10 09:31:00;;;;;;;6.00;4.17;;;;;;;28.85;26.96;99853.08;1681325;84;20944;-66
2021/09/10 09:33:37;;;;;;;11.70;4.53;;;;;;;28.85;26.73;99848.23;1684831;83;22362;-67
2021/09/10 09:36:06;;;;;;;9.43;4.58;;;;;;;28.77;25.47;99845.94;1669238;84;20948;-66
2021/09/10 09:38:35;;;;;;;9.20;4.47;;;;;;;28.69;25.56;99850.92;1675602;84;21116;-65
2021/09/10 09:41:09;;;;;;;6.30;4.03;;;;;;;28.67;27.90;99852.58;1670781;85;21423;-65
2021/09/10 09:43:40;;;;;;;10.13;4.33;;;;;;;28.75;25.64;99846.37;1672200;84;21051;-66
2021/09/10 09:46:16;;;;;;;9.55;4.15;;;;;;;28.71;25.69;99845.64;1686664;84;21143;-67
2021/09/10 09:48:46;;;;;;;9.13;4.70;;;;;;;28.60;26.69;99840.18;1679362;84;21022;-65
2021/09/10 09:51:17;;;;;;;11.20;4.45;;;;;;;28.60;26.39;99843.62;1646197;85;21003;-65
2021/09/10 09:53:44;;;;;;;8.08;4.12;;;;;;;28.70;25.71;99836.18;1674536;85;20983;-67
2021/09/10 09:56:10;;;;;;;7.62;4.83;;;;;;;28.77;26.38;99831.20;1677268;84;20877;-66
2021/09/10 09:58:39;;;;;;;11.20;5.30;;;;;;;28.92;26.42;99828.28;1670028;85;21201;-66
2021/09/10 10:01:07;;;;;;;8.53;5.00;;;;;;;29.04;26.30;99833.91;1680655;84;21510;-66
2021/09/10 10:03:33;;;;;;;13.03;4.72;;;;;;;29.13;28.18;99830.50;1674007;85;20979;-65
2021/09/10 10:06:08;;;;;;;12.18;5.72;;;;;;;29.25;26.20;99830.64;1680127;85;21058;-65
2021/09/10 10:08:53;;;;;;;13.28;4.90;;;;;;;29.30;26.54;99829.34;1699907;83;21699;-65
2021/09/10 10:11:24;;;;;;;8.90;4.75;;;;;;;29.34;26.54;99828.65;1685062;83;21137;-66
2021/09/10 10:13:57;;;;;;;;;;;;;;;29.40;25.71;99830.34;1679160;84;21062;-65
2021/09/10 10:16:42;;;;;;;9.78;4.45;;;;;;;29.39;26.76;99824.52;1666156;85;20117;-65
2021/09/10 10:19:27;;;;;;;8.93;4.50;;;;;;;29.39;26.85;99824.52;1688473;84;21495;-65
2021/09/10 10:22:02;;;;;;;8.53;4.45;;;;;;;29.41;25.74;99828.53;1695145;84;21047;-66
2021/09/10 10:24:51;;;;;;;18.90;4.85;;;;;;;29.37;26.76;99822.73;1687121;83;21439;-66
2021/09/10 10:27:46;;;;;;;9.93;4.47;;;;;;;29.35;26.19;99813.28;1696062;83;20943;-65
2021/09/10 10:30:39;;;;;;;9.60;4.42;;;;;;;29.33;26.25;99805.84;1711723;83;21401;-66
2021/09/10 10:33:27;;;;;;;9.33;4.25;;;;;;;29.49;26.23;99807.93;1650359;86;21113;-65
2021/09/10 10:35:54;;;;;;;10.08;4.30;;;;;;;29.58;27.47;99801.06;1663173;86;21014;-65
2021/09/10 10:38:20;;;;;;;7.12;4.20;;;;;;;29.57;26.69;99803.09;1688479;83;22016;-66
2021/09/10 10:40:50;;;;;;;9.73;4.50;;;;;;;29.68;25.66;99802.84;1706209;83;21126;-67
2021/09/10 10:43:27;;;;;;;8.78;4.33;;;;;;;29.68;25.60;99800.02;1702340;83;20964;-65
2021/09/10 10:46:06;;;;;;;9.43;4.08;;;;;;;29.74;25.23;99798.27;1706088;83;21059;-65
2021/09/10 10:48:38;;;;;;;7.05;4.10;;;;;;;29.81;25.86;99795.88;1701176;83;20983;-65
2021/09/10 10:51:20;;;;;;;12.37;4.03;;;;;;;29.69;25.68;99793.74;1705176;83;21037;-65
2021/09/10 10:53:55;;;;;;;13.83;4.35;;;;;;;29.60;25.76;99788.69;1708015;83;20904;-64
2021/09/10 10:56:35;;;;;;;8.75;4.30;;;;;;;29.62;25.09;99795.32;1702418;83;20935;-64
2021/09/10 10:59:24;;;;;;;16.95;4.95;;;;;;;29.65;25.82;99787.37;1704775;83;20955;-65
2021/09/10 11:02:32;;;;;;;13.30;5.00;;;;;;;29.81;24.88;99791.02;1719977;83;22590;-65
2021/09/10 11:05:02;;;;;;;12.65;4.87;;;;;;;29.85;24.51;99785.27;1714634;83;21206;-65
2021/09/10 11:07:30;;;;;;;12.10;4.40;;;;;;;29.98;25.50;99777.68;1705826;83;20892;-65
2021/09/10 11:10:08;;;;;;;13.22;4.90;;;;;;;30.09;25.17;99771.13;1687746;83;20900;-65
2021/09/10 11:12:38;;;;;;;13.38;4.85;;;;;;;30.12;24.59;99777.94;1706103;83;20908;-66
2021/09/10 11:15:31;;;;;;;10.40;4.55;;;;;;;30.09;24.98;99776.80;1715583;83;20923;-65
2021/09/10 11:18:12;;;;;;;10.88;4.33;;;;;;;30.21;24.13;99772.45;1712504;83;23434;-65
2021/09/10 11:20:48;;;;;;;9.65;4.37;;;;;;;30.18;22.91;99765.64;1713960;83;20971;-65
2021/09/10 11:23:18;;;;;;;8.88;4.37;;;;;;;30.12;24.29;99773.70;1712099;83;20904;-65
2021/09/10 11:25:50;;;;;;;8.20;4.30;;;;;;;30.12;23.26;99768.03;1714827;83;21708;-65
2021/09/10 11:28:18;;;;;;;6.90;4.72;;;;;;;30.12;23.57;99754.67;1699526;83;21003;-65
2021/09/10 11:30:46;;;;;;;8.65;4.80;;;;;;;30.22;23.60;99757.06;1699382;83;21137;-65
2021/09/10 11:33:13;;;;;;;7.30;4.15;;;;;;;30.34;24.18;99747.04;1713916;83;20930;-64
2021/09/10 11:35:40;;;;;;;10.75;4.47;;;;;;;30.47;25.04;99746.48;1715824;83;20891;-65
2021/09/10 11:38:12;;;;;;;11.15;4.22;;;;;;;30.73;23.79;99749.59;1681832;84;21142;-65
2021/09/10 11:40:52;;;;;;;8.78;4.30;;;;;;;30.82;25.16;99746.11;1705937;82;20915;-65
2021/09/10 11:43:26;;;;;;;6.97;3.95;;;;;;;30.95;24.19;99743.31;1715596;83;21099;-65
2021/09/10 11:46:00;;;;;;;7.08;3.80;;;;;;;31.00;24.35;99738.51;1683639;84;21048;-64